sensor_id;sensor_type;location;lat;lon;timestamp;temperature;humidity
62363;DHT22;48396;48.426;1.500;2023-05-10T00:00:13;16.00;92.60
62363;DHT22;48396;48.426;1.500;2023-05-10T00:02:39;16.00;92.60
62363;DHT22;48396;48.426;1.500;2023-05-10T00:05:05;15.90;92.60
62363;DHT22;48396;48.426;1.500;2023-05-10T00:07:30;15.70;92.70
62363;DHT22;48396;48.426;1.500;2023-05-10T00:09:56;15.60;93.00
62363;DHT22;48396;48.426;1.500;2023-05-10T00:12:22;15.50;93.10
62363;DHT22;48396;48.426;1.500;2023-05-10T00:14:47;15.60;93.20
62363;DHT22;48396;48.426;1.500;2023-05-10T00:17:13;15.70;93.10
62363;DHT22;48396;48.426;1.500;2023-05-10T00:19:38;15.90;93.00
62363;DHT22;48396;48.426;1.500;2023-05-10T00:22:04;16.00;92.80
62363;DHT22;48396;48.426;1.500;2023-05-10T00:24:29;16.00;92.60
62363;DHT22;48396;48.426;1.500;2023-05-10T00:26:55;15.90;92.50
62363;DHT22;48396;48.426;1.500;2023-05-10T00:29:21;15.70;92.90
62363;DHT22;48396;48.426;1.500;2023-05-10T00:31:46;15.60;92.90
62363;DHT22;48396;48.426;1.500;2023-05-10T00:34:12;15.50;93.00
62363;DHT22;48396;48.426;1.500;2023-05-10T00:36:37;15.30;93.40
62363;DHT22;48396;48.426;1.500;2023-05-10T00:39:03;15.30;93.50
62363;DHT22;48396;48.426;1.500;2023-05-10T00:41:29;15.20;93.60
62363;DHT22;48396;48.426;1.500;2023-05-10T00:43:58;15.30;93.70
62363;DHT22;48396;48.426;1.500;2023-05-10T00:46:23;15.20;93.70
62363;DHT22;48396;48.426;1.500;2023-05-10T00:48:50;14.90;94.00
62363;DHT22;48396;48.426;1.500;2023-05-10T00:51:15;14.70;94.40
62363;DHT22;48396;48.426;1.500;2023-05-10T00:53:41;14.70;94.70
62363;DHT22;48396;48.426;1.500;2023-05-10T00:56:08;14.60;94.90
62363;DHT22;48396;48.426;1.500;2023-05-10T00:58:33;14.50;95.10
62363;DHT22;48396;48.426;1.500;2023-05-10T01:01:00;14.50;95.10
62363;DHT22;48396;48.426;1.500;2023-05-10T01:03:26;14.40;95.40
62363;DHT22;48396;48.426;1.500;2023-05-10T01:05:52;14.20;95.80
62363;DHT22;48396;48.426;1.500;2023-05-10T01:08:18;14.10;96.10
62363;DHT22;48396;48.426;1.500;2023-05-10T01:10:45;14.00;96.40
62363;DHT22;48396;48.426;1.500;2023-05-10T01:13:11;14.00;96.50
62363;DHT22;48396;48.426;1.500;2023-05-10T01:15:38;14.10;96.60
62363;DHT22;48396;48.426;1.500;2023-05-10T01:18:04;14.10;96.70
62363;DHT22;48396;48.426;1.500;2023-05-10T01:20:36;14.20;96.60
62363;DHT22;48396;48.426;1.500;2023-05-10T01:23:36;14.20;96.50
62363;DHT22;48396;48.426;1.500;2023-05-10T01:26:22;14.20;96.60
62363;DHT22;48396;48.426;1.500;2023-05-10T01:28:58;14.20;96.70
62363;DHT22;48396;48.426;1.500;2023-05-10T01:34:38;14.40;96.50
62363;DHT22;48396;48.426;1.500;2023-05-10T01:37:13;14.40;96.50
62363;DHT22;48396;48.426;1.500;2023-05-10T01:39:53;14.30;96.70
62363;DHT22;48396;48.426;1.500;2023-05-10T01:42:23;14.40;96.70
62363;DHT22;48396;48.426;1.500;2023-05-10T01:45:00;14.30;96.80
62363;DHT22;48396;48.426;1.500;2023-05-10T01:47:50;14.40;96.80
62363;DHT22;48396;48.426;1.500;2023-05-10T01:50:24;14.50;96.80
62363;DHT22;48396;48.426;1.500;2023-05-10T01:52:54;14.60;96.70
62363;DHT22;48396;48.426;1.500;2023-05-10T01:55:22;14.60;96.90
62363;DHT22;48396;48.426;1.500;2023-05-10T01:57:52;14.50;97.10
62363;DHT22;48396;48.426;1.500;2023-05-10T02:00:22;14.40;97.10
62363;DHT22;48396;48.426;1.500;2023-05-10T02:02:49;14.50;97.20
62363;DHT22;48396;48.426;1.500;2023-05-10T02:05:16;14.70;97.00
62363;DHT22;48396;48.426;1.500;2023-05-10T02:07:43;14.80;96.80
62363;DHT22;48396;48.426;1.500;2023-05-10T02:10:10;14.80;96.70
62363;DHT22;48396;48.426;1.500;2023-05-10T02:12:41;14.70;96.90
62363;DHT22;48396;48.426;1.500;2023-05-10T02:15:07;14.70;97.10
62363;DHT22;48396;48.426;1.500;2023-05-10T02:17:35;14.60;97.20
62363;DHT22;48396;48.426;1.500;2023-05-10T02:20:03;14.60;97.30
62363;DHT22;48396;48.426;1.500;2023-05-10T02:22:30;14.50;97.60
62363;DHT22;48396;48.426;1.500;2023-05-10T02:24:57;14.40;97.90
62363;DHT22;48396;48.426;1.500;2023-05-10T02:27:24;14.40;98.30
62363;DHT22;48396;48.426;1.500;2023-05-10T02:29:51;14.40;98.50
62363;DHT22;48396;48.426;1.500;2023-05-10T02:32:17;14.50;98.40
62363;DHT22;48396;48.426;1.500;2023-05-10T02:34:44;14.60;98.40
62363;DHT22;48396;48.426;1.500;2023-05-10T02:37:15;14.60;98.30
62363;DHT22;48396;48.426;1.500;2023-05-10T02:39:43;14.70;98.20
62363;DHT22;48396;48.426;1.500;2023-05-10T02:42:13;14.80;98.20
62363;DHT22;48396;48.426;1.500;2023-05-10T02:44:41;14.80;98.10
62363;DHT22;48396;48.426;1.500;2023-05-10T02:47:08;14.80;98.10
62363;DHT22;48396;48.426;1.500;2023-05-10T02:49:34;14.90;98.10
62363;DHT22;48396;48.426;1.500;2023-05-10T02:54:46;15.30;97.60
62363;DHT22;48396;48.426;1.500;2023-05-10T02:57:22;15.40;97.30
62363;DHT22;48396;48.426;1.500;2023-05-10T02:59:48;15.50;97.20
62363;DHT22;48396;48.426;1.500;2023-05-10T03:02:14;15.50;97.00
62363;DHT22;48396;48.426;1.500;2023-05-10T03:04:40;15.60;97.00
62363;DHT22;48396;48.426;1.500;2023-05-10T03:07:05;15.60;96.90
62363;DHT22;48396;48.426;1.500;2023-05-10T03:09:32;15.50;97.00
62363;DHT22;48396;48.426;1.500;2023-05-10T03:12:11;15.40;97.30
62363;DHT22;48396;48.426;1.500;2023-05-10T03:15:00;15.20;97.40
62363;DHT22;48396;48.426;1.500;2023-05-10T03:17:44;15.10;97.70
62363;DHT22;48396;48.426;1.500;2023-05-10T03:20:57;15.00;97.80
62363;DHT22;48396;48.426;1.500;2023-05-10T03:23:11;15.00;98.10
62363;DHT22;48396;48.426;1.500;2023-05-10T03:25:37;14.90;98.10
62363;DHT22;48396;48.426;1.500;2023-05-10T03:28:04;14.80;98.10
62363;DHT22;48396;48.426;1.500;2023-05-10T03:30:30;14.90;98.10
62363;DHT22;48396;48.426;1.500;2023-05-10T03:32:57;15.10;97.90
62363;DHT22;48396;48.426;1.500;2023-05-10T03:35:23;15.20;97.70
62363;DHT22;48396;48.426;1.500;2023-05-10T03:37:49;15.20;97.50
62363;DHT22;48396;48.426;1.500;2023-05-10T03:40:15;15.20;97.60
62363;DHT22;48396;48.426;1.500;2023-05-10T03:42:41;15.20;97.40
62363;DHT22;48396;48.426;1.500;2023-05-10T03:45:07;15.20;97.30
62363;DHT22;48396;48.426;1.500;2023-05-10T03:47:33;15.10;97.40
62363;DHT22;48396;48.426;1.500;2023-05-10T03:49:58;15.10;97.50
62363;DHT22;48396;48.426;1.500;2023-05-10T03:52:24;15.10;97.80
62363;DHT22;48396;48.426;1.500;2023-05-10T03:54:50;15.10;97.50
62363;DHT22;48396;48.426;1.500;2023-05-10T03:57:16;15.00;97.50
62363;DHT22;48396;48.426;1.500;2023-05-10T03:59:41;15.00;97.70
62363;DHT22;48396;48.426;1.500;2023-05-10T04:02:07;14.90;97.80
62363;DHT22;48396;48.426;1.500;2023-05-10T04:04:32;14.90;97.80
62363;DHT22;48396;48.426;1.500;2023-05-10T04:06:58;14.80;97.90
62363;DHT22;48396;48.426;1.500;2023-05-10T04:09:24;14.70;98.20
62363;DHT22;48396;48.426;1.500;2023-05-10T04:11:49;14.50;98.60
62363;DHT22;48396;48.426;1.500;2023-05-10T04:14:15;14.50;98.70
62363;DHT22;48396;48.426;1.500;2023-05-10T04:16:42;14.60;98.80
62363;DHT22;48396;48.426;1.500;2023-05-10T04:19:07;14.60;98.70
62363;DHT22;48396;48.426;1.500;2023-05-10T04:21:33;14.60;98.80
62363;DHT22;48396;48.426;1.500;2023-05-10T04:23:58;14.60;98.90
62363;DHT22;48396;48.426;1.500;2023-05-10T04:26:24;14.70;98.90
62363;DHT22;48396;48.426;1.500;2023-05-10T04:28:50;14.60;99.00
62363;DHT22;48396;48.426;1.500;2023-05-10T04:31:16;14.70;99.10
62363;DHT22;48396;48.426;1.500;2023-05-10T04:33:42;14.70;99.00
62363;DHT22;48396;48.426;1.500;2023-05-10T04:36:08;14.80;99.20
62363;DHT22;48396;48.426;1.500;2023-05-10T04:38:33;14.60;99.30
62363;DHT22;48396;48.426;1.500;2023-05-10T04:41:09;14.70;99.40
62363;DHT22;48396;48.426;1.500;2023-05-10T04:43:36;14.70;99.40
62363;DHT22;48396;48.426;1.500;2023-05-10T04:46:02;14.70;99.40
62363;DHT22;48396;48.426;1.500;2023-05-10T04:48:28;14.80;99.50
62363;DHT22;48396;48.426;1.500;2023-05-10T04:50:53;14.80;99.50
62363;DHT22;48396;48.426;1.500;2023-05-10T04:53:19;14.70;99.50
62363;DHT22;48396;48.426;1.500;2023-05-10T04:55:44;14.90;99.40
62363;DHT22;48396;48.426;1.500;2023-05-10T04:58:10;14.90;99.10
62363;DHT22;48396;48.426;1.500;2023-05-10T05:00:36;15.10;99.00
62363;DHT22;48396;48.426;1.500;2023-05-10T05:03:01;15.00;99.20
62363;DHT22;48396;48.426;1.500;2023-05-10T05:05:27;14.90;99.40
62363;DHT22;48396;48.426;1.500;2023-05-10T05:07:52;14.90;99.40
62363;DHT22;48396;48.426;1.500;2023-05-10T05:10:18;14.90;99.30
62363;DHT22;48396;48.426;1.500;2023-05-10T05:12:43;15.00;99.20
62363;DHT22;48396;48.426;1.500;2023-05-10T05:15:09;15.00;99.10
62363;DHT22;48396;48.426;1.500;2023-05-10T05:17:36;14.90;99.20
62363;DHT22;48396;48.426;1.500;2023-05-10T05:20:01;14.90;99.40
62363;DHT22;48396;48.426;1.500;2023-05-10T05:22:27;14.90;99.30
62363;DHT22;48396;48.426;1.500;2023-05-10T05:24:57;14.90;99.30
62363;DHT22;48396;48.426;1.500;2023-05-10T05:27:24;15.00;99.30
62363;DHT22;48396;48.426;1.500;2023-05-10T05:29:55;15.00;99.30
62363;DHT22;48396;48.426;1.500;2023-05-10T05:32:21;15.00;99.40
62363;DHT22;48396;48.426;1.500;2023-05-10T05:34:47;14.90;99.60
62363;DHT22;48396;48.426;1.500;2023-05-10T05:37:14;14.80;99.80
62363;DHT22;48396;48.426;1.500;2023-05-10T05:39:40;14.80;99.80
62363;DHT22;48396;48.426;1.500;2023-05-10T05:42:05;14.90;99.80
62363;DHT22;48396;48.426;1.500;2023-05-10T05:44:31;15.00;99.80
62363;DHT22;48396;48.426;1.500;2023-05-10T05:46:57;14.80;99.80
62363;DHT22;48396;48.426;1.500;2023-05-10T05:49:22;14.80;99.90
62363;DHT22;48396;48.426;1.500;2023-05-10T05:51:48;14.90;99.90
62363;DHT22;48396;48.426;1.500;2023-05-10T05:54:15;14.80;99.90
62363;DHT22;48396;48.426;1.500;2023-05-10T05:56:41;14.80;99.90
62363;DHT22;48396;48.426;1.500;2023-05-10T05:59:06;14.90;99.90
62363;DHT22;48396;48.426;1.500;2023-05-10T06:01:32;15.00;99.90
62363;DHT22;48396;48.426;1.500;2023-05-10T06:03:58;15.00;99.80
62363;DHT22;48396;48.426;1.500;2023-05-10T06:06:23;15.00;99.70
62363;DHT22;48396;48.426;1.500;2023-05-10T06:08:49;14.90;99.70
62363;DHT22;48396;48.426;1.500;2023-05-10T06:11:14;14.90;99.90
62363;DHT22;48396;48.426;1.500;2023-05-10T06:13:40;14.90;99.90
62363;DHT22;48396;48.426;1.500;2023-05-10T06:16:07;14.90;99.90
62363;DHT22;48396;48.426;1.500;2023-05-10T06:18:33;14.90;99.90
62363;DHT22;48396;48.426;1.500;2023-05-10T06:20:58;14.90;99.90
62363;DHT22;48396;48.426;1.500;2023-05-10T06:23:24;14.80;99.90
62363;DHT22;48396;48.426;1.500;2023-05-10T06:25:51;14.90;99.90
62363;DHT22;48396;48.426;1.500;2023-05-10T06:28:16;14.90;99.90
62363;DHT22;48396;48.426;1.500;2023-05-10T06:30:42;14.80;99.70
62363;DHT22;48396;48.426;1.500;2023-05-10T06:33:08;14.80;99.90
62363;DHT22;48396;48.426;1.500;2023-05-10T06:35:33;14.70;99.90
62363;DHT22;48396;48.426;1.500;2023-05-10T06:37:59;14.70;99.90
62363;DHT22;48396;48.426;1.500;2023-05-10T06:40:24;14.50;99.90
62363;DHT22;48396;48.426;1.500;2023-05-10T06:42:50;14.60;99.90
62363;DHT22;48396;48.426;1.500;2023-05-10T06:45:16;14.50;99.90
62363;DHT22;48396;48.426;1.500;2023-05-10T06:47:42;14.70;99.90
62363;DHT22;48396;48.426;1.500;2023-05-10T06:50:09;14.60;99.90
62363;DHT22;48396;48.426;1.500;2023-05-10T06:52:35;14.70;99.90
62363;DHT22;48396;48.426;1.500;2023-05-10T06:55:01;14.80;99.90
62363;DHT22;48396;48.426;1.500;2023-05-10T06:57:27;14.70;99.90
62363;DHT22;48396;48.426;1.500;2023-05-10T06:59:52;14.80;99.90
62363;DHT22;48396;48.426;1.500;2023-05-10T07:02:18;14.70;99.90
62363;DHT22;48396;48.426;1.500;2023-05-10T07:04:44;14.60;99.90
62363;DHT22;48396;48.426;1.500;2023-05-10T07:07:09;14.60;99.90
62363;DHT22;48396;48.426;1.500;2023-05-10T07:09:35;14.60;99.90
62363;DHT22;48396;48.426;1.500;2023-05-10T07:12:00;14.70;99.90
62363;DHT22;48396;48.426;1.500;2023-05-10T07:14:27;14.70;99.90
62363;DHT22;48396;48.426;1.500;2023-05-10T07:16:53;14.70;99.90
62363;DHT22;48396;48.426;1.500;2023-05-10T07:19:18;14.80;99.90
62363;DHT22;48396;48.426;1.500;2023-05-10T07:21:44;14.80;99.90
62363;DHT22;48396;48.426;1.500;2023-05-10T07:24:28;14.80;99.90
62363;DHT22;48396;48.426;1.500;2023-05-10T07:26:54;14.60;99.90
62363;DHT22;48396;48.426;1.500;2023-05-10T07:29:19;14.70;99.90
62363;DHT22;48396;48.426;1.500;2023-05-10T07:31:45;14.80;99.90
62363;DHT22;48396;48.426;1.500;2023-05-10T07:34:10;14.80;99.90
62363;DHT22;48396;48.426;1.500;2023-05-10T07:36:36;14.90;99.90
62363;DHT22;48396;48.426;1.500;2023-05-10T07:39:02;14.80;99.90
62363;DHT22;48396;48.426;1.500;2023-05-10T07:41:27;14.80;99.90
62363;DHT22;48396;48.426;1.500;2023-05-10T07:43:53;14.80;99.90
62363;DHT22;48396;48.426;1.500;2023-05-10T07:46:18;14.70;99.90
62363;DHT22;48396;48.426;1.500;2023-05-10T07:48:45;14.70;99.90
62363;DHT22;48396;48.426;1.500;2023-05-10T07:51:11;14.80;99.90
62363;DHT22;48396;48.426;1.500;2023-05-10T07:53:37;14.90;99.90
62363;DHT22;48396;48.426;1.500;2023-05-10T07:58:48;14.90;99.50
62363;DHT22;48396;48.426;1.500;2023-05-10T08:01:14;15.00;99.60
62363;DHT22;48396;48.426;1.500;2023-05-10T08:03:39;15.00;99.60
62363;DHT22;48396;48.426;1.500;2023-05-10T08:06:05;15.10;99.60
62363;DHT22;48396;48.426;1.500;2023-05-10T08:08:31;15.00;99.50
62363;DHT22;48396;48.426;1.500;2023-05-10T08:10:56;15.00;99.60
62363;DHT22;48396;48.426;1.500;2023-05-10T08:13:22;14.90;99.30
62363;DHT22;48396;48.426;1.500;2023-05-10T08:15:48;14.90;99.40
62363;DHT22;48396;48.426;1.500;2023-05-10T08:18:13;15.00;99.30
62363;DHT22;48396;48.426;1.500;2023-05-10T08:20:39;15.10;99.40
62363;DHT22;48396;48.426;1.500;2023-05-10T08:23:05;14.90;98.90
62363;DHT22;48396;48.426;1.500;2023-05-10T08:25:31;14.90;99.20
62363;DHT22;48396;48.426;1.500;2023-05-10T08:27:57;15.00;99.20
62363;DHT22;48396;48.426;1.500;2023-05-10T08:30:22;15.10;99.10
62363;DHT22;48396;48.426;1.500;2023-05-10T08:32:48;15.20;98.80
62363;DHT22;48396;48.426;1.500;2023-05-10T08:35:13;15.20;98.50
62363;DHT22;48396;48.426;1.500;2023-05-10T08:37:39;15.20;98.50
62363;DHT22;48396;48.426;1.500;2023-05-10T08:40:05;15.30;98.40
62363;DHT22;48396;48.426;1.500;2023-05-10T08:42:34;15.20;98.30
62363;DHT22;48396;48.426;1.500;2023-05-10T08:45:02;15.10;97.90
62363;DHT22;48396;48.426;1.500;2023-05-10T08:47:29;15.10;98.10
62363;DHT22;48396;48.426;1.500;2023-05-10T08:49:55;15.10;98.30
62363;DHT22;48396;48.426;1.500;2023-05-10T08:52:24;15.10;98.30
62363;DHT22;48396;48.426;1.500;2023-05-10T08:54:51;15.00;97.90
62363;DHT22;48396;48.426;1.500;2023-05-10T08:57:18;15.10;97.70
62363;DHT22;48396;48.426;1.500;2023-05-10T08:59:44;15.10;97.60
62363;DHT22;48396;48.426;1.500;2023-05-10T09:02:10;15.10;97.90
62363;DHT22;48396;48.426;1.500;2023-05-10T09:04:37;15.30;97.50
62363;DHT22;48396;48.426;1.500;2023-05-10T09:07:02;15.30;96.60
62363;DHT22;48396;48.426;1.500;2023-05-10T09:09:28;15.30;96.70
62363;DHT22;48396;48.426;1.500;2023-05-10T09:11:54;15.30;96.40
62363;DHT22;48396;48.426;1.500;2023-05-10T09:14:20;15.40;96.20
62363;DHT22;48396;48.426;1.500;2023-05-10T09:16:47;15.50;95.80
62363;DHT22;48396;48.426;1.500;2023-05-10T09:19:13;15.40;95.80
62363;DHT22;48396;48.426;1.500;2023-05-10T09:21:39;15.30;95.80
62363;DHT22;48396;48.426;1.500;2023-05-10T09:24:08;15.40;95.70
62363;DHT22;48396;48.426;1.500;2023-05-10T09:26:35;15.40;95.70
62363;DHT22;48396;48.426;1.500;2023-05-10T09:29:02;15.50;95.90
62363;DHT22;48396;48.426;1.500;2023-05-10T09:31:48;15.60;96.10
62363;DHT22;48396;48.426;1.500;2023-05-10T09:34:21;15.70;95.80
62363;DHT22;48396;48.426;1.500;2023-05-10T09:36:57;15.80;96.00
62363;DHT22;48396;48.426;1.500;2023-05-10T09:39:36;15.80;96.00
62363;DHT22;48396;48.426;1.500;2023-05-10T09:42:04;15.80;95.90
62363;DHT22;48396;48.426;1.500;2023-05-10T09:44:31;15.90;96.00
62363;DHT22;48396;48.426;1.500;2023-05-10T09:46:57;15.90;95.90
62363;DHT22;48396;48.426;1.500;2023-05-10T09:49:23;15.90;95.90
62363;DHT22;48396;48.426;1.500;2023-05-10T09:52:07;16.00;95.80
62363;DHT22;48396;48.426;1.500;2023-05-10T09:54:34;16.10;95.70
62363;DHT22;48396;48.426;1.500;2023-05-10T09:57:00;16.10;95.90
62363;DHT22;48396;48.426;1.500;2023-05-10T09:59:27;16.10;95.80
62363;DHT22;48396;48.426;1.500;2023-05-10T10:01:56;16.10;95.80
62363;DHT22;48396;48.426;1.500;2023-05-10T10:04:22;16.10;95.60
62363;DHT22;48396;48.426;1.500;2023-05-10T10:06:58;16.20;95.80
62363;DHT22;48396;48.426;1.500;2023-05-10T10:09:25;16.30;95.50
62363;DHT22;48396;48.426;1.500;2023-05-10T10:11:51;16.40;95.50
62363;DHT22;48396;48.426;1.500;2023-05-10T10:14:18;16.50;95.00
62363;DHT22;48396;48.426;1.500;2023-05-10T10:16:44;16.50;94.60
62363;DHT22;48396;48.426;1.500;2023-05-10T10:19:10;16.50;94.10
62363;DHT22;48396;48.426;1.500;2023-05-10T10:21:35;16.50;94.10
62363;DHT22;48396;48.426;1.500;2023-05-10T10:24:01;16.60;94.20
62363;DHT22;48396;48.426;1.500;2023-05-10T10:26:27;16.60;94.00
62363;DHT22;48396;48.426;1.500;2023-05-10T10:34:26;16.80;93.50
62363;DHT22;48396;48.426;1.500;2023-05-10T10:36:54;16.80;93.30
62363;DHT22;48396;48.426;1.500;2023-05-10T10:39:20;16.80;93.40
62363;DHT22;48396;48.426;1.500;2023-05-10T10:41:53;16.80;93.40
62363;DHT22;48396;48.426;1.500;2023-05-10T10:52:24;16.70;93.90
62363;DHT22;48396;48.426;1.500;2023-05-10T10:57:45;16.80;93.50
62363;DHT22;48396;48.426;1.500;2023-05-10T11:00:36;16.80;93.50
62363;DHT22;48396;48.426;1.500;2023-05-10T11:03:05;17.00;93.30
62363;DHT22;48396;48.426;1.500;2023-05-10T11:05:49;17.00;93.40
62363;DHT22;48396;48.426;1.500;2023-05-10T11:08:30;17.20;93.40
62363;DHT22;48396;48.426;1.500;2023-05-10T11:13:51;17.20;93.40
62363;DHT22;48396;48.426;1.500;2023-05-10T11:16:20;17.30;92.60
62363;DHT22;48396;48.426;1.500;2023-05-10T11:19:04;17.20;92.00
62363;DHT22;48396;48.426;1.500;2023-05-10T11:21:32;17.20;92.60
62363;DHT22;48396;48.426;1.500;2023-05-10T11:24:00;17.20;91.90
62363;DHT22;48396;48.426;1.500;2023-05-10T11:26:34;17.10;92.00
62363;DHT22;48396;48.426;1.500;2023-05-10T11:29:00;17.20;91.20
62363;DHT22;48396;48.426;1.500;2023-05-10T11:31:27;17.30;91.80
62363;DHT22;48396;48.426;1.500;2023-05-10T11:33:55;17.40;91.80
62363;DHT22;48396;48.426;1.500;2023-05-10T11:36:27;17.60;91.40
62363;DHT22;48396;48.426;1.500;2023-05-10T11:38:54;17.60;91.00
62363;DHT22;48396;48.426;1.500;2023-05-10T11:41:21;17.60;90.20
62363;DHT22;48396;48.426;1.500;2023-05-10T11:43:49;17.60;89.20
62363;DHT22;48396;48.426;1.500;2023-05-10T11:46:18;17.70;89.50
62363;DHT22;48396;48.426;1.500;2023-05-10T11:48:46;17.80;90.00
62363;DHT22;48396;48.426;1.500;2023-05-10T11:51:12;17.90;88.00
62363;DHT22;48396;48.426;1.500;2023-05-10T11:53:37;18.00;88.20
62363;DHT22;48396;48.426;1.500;2023-05-10T11:56:07;18.00;87.10
62363;DHT22;48396;48.426;1.500;2023-05-10T11:58:34;18.00;88.40
62363;DHT22;48396;48.426;1.500;2023-05-10T12:01:00;18.10;88.20
62363;DHT22;48396;48.426;1.500;2023-05-10T12:03:29;18.10;87.60
62363;DHT22;48396;48.426;1.500;2023-05-10T12:05:56;18.30;88.50
62363;DHT22;48396;48.426;1.500;2023-05-10T12:08:23;18.40;88.20
62363;DHT22;48396;48.426;1.500;2023-05-10T12:10:49;18.40;88.30
62363;DHT22;48396;48.426;1.500;2023-05-10T12:13:15;18.50;88.20
62363;DHT22;48396;48.426;1.500;2023-05-10T12:15:41;18.50;88.50
62363;DHT22;48396;48.426;1.500;2023-05-10T12:18:12;18.50;87.90
62363;DHT22;48396;48.426;1.500;2023-05-10T12:20:39;18.50;87.70
62363;DHT22;48396;48.426;1.500;2023-05-10T12:23:05;18.50;87.80
62363;DHT22;48396;48.426;1.500;2023-05-10T12:25:37;18.50;88.40
62363;DHT22;48396;48.426;1.500;2023-05-10T12:28:05;18.30;88.90
62363;DHT22;48396;48.426;1.500;2023-05-10T12:30:53;18.30;89.50
62363;DHT22;48396;48.426;1.500;2023-05-10T12:33:18;18.30;89.30
62363;DHT22;48396;48.426;1.500;2023-05-10T12:35:52;18.30;89.50
62363;DHT22;48396;48.426;1.500;2023-05-10T12:38:39;18.40;89.40
62363;DHT22;48396;48.426;1.500;2023-05-10T12:41:10;18.40;89.10
62363;DHT22;48396;48.426;1.500;2023-05-10T12:43:36;18.30;89.00
62363;DHT22;48396;48.426;1.500;2023-05-10T12:46:20;18.30;87.00
62363;DHT22;48396;48.426;1.500;2023-05-10T12:48:46;18.40;88.20
62363;DHT22;48396;48.426;1.500;2023-05-10T12:51:14;18.50;88.10
62363;DHT22;48396;48.426;1.500;2023-05-10T12:53:42;18.50;86.60
62363;DHT22;48396;48.426;1.500;2023-05-10T12:56:10;18.50;87.20
62363;DHT22;48396;48.426;1.500;2023-05-10T12:58:36;18.80;87.20
62363;DHT22;48396;48.426;1.500;2023-05-10T13:01:02;18.90;86.00
62363;DHT22;48396;48.426;1.500;2023-05-10T13:03:28;18.90;84.70
62363;DHT22;48396;48.426;1.500;2023-05-10T13:05:53;18.90;84.80
62363;DHT22;48396;48.426;1.500;2023-05-10T13:08:19;19.10;84.70
62363;DHT22;48396;48.426;1.500;2023-05-10T13:10:44;19.20;84.30
62363;DHT22;48396;48.426;1.500;2023-05-10T13:13:10;19.30;85.40
62363;DHT22;48396;48.426;1.500;2023-05-10T13:15:36;19.40;87.30
62363;DHT22;48396;48.426;1.500;2023-05-10T13:18:01;19.40;87.60
62363;DHT22;48396;48.426;1.500;2023-05-10T13:20:27;19.40;87.80
62363;DHT22;48396;48.426;1.500;2023-05-10T13:22:53;19.30;87.20
62363;DHT22;48396;48.426;1.500;2023-05-10T13:25:19;19.00;87.60
62363;DHT22;48396;48.426;1.500;2023-05-10T13:27:45;18.90;88.10
62363;DHT22;48396;48.426;1.500;2023-05-10T13:30:11;18.60;90.70
62363;DHT22;48396;48.426;1.500;2023-05-10T13:32:37;18.30;92.10
62363;DHT22;48396;48.426;1.500;2023-05-10T13:35:04;18.10;92.80
62363;DHT22;48396;48.426;1.500;2023-05-10T13:37:31;18.10;93.10
62363;DHT22;48396;48.426;1.500;2023-05-10T13:39:57;17.80;94.20
62363;DHT22;48396;48.426;1.500;2023-05-10T13:42:23;17.80;94.40
62363;DHT22;48396;48.426;1.500;2023-05-10T13:44:49;17.90;94.60
62363;DHT22;48396;48.426;1.500;2023-05-10T13:47:15;17.70;94.90
62363;DHT22;48396;48.426;1.500;2023-05-10T13:49:41;17.70;95.40
62363;DHT22;48396;48.426;1.500;2023-05-10T13:52:07;17.80;95.40
62363;DHT22;48396;48.426;1.500;2023-05-10T13:54:38;17.90;95.30
62363;DHT22;48396;48.426;1.500;2023-05-10T13:57:04;17.90;95.70
62363;DHT22;48396;48.426;1.500;2023-05-10T13:59:30;18.00;96.20
62363;DHT22;48396;48.426;1.500;2023-05-10T14:01:59;18.00;96.60
62363;DHT22;48396;48.426;1.500;2023-05-10T14:04:25;17.90;96.70
62363;DHT22;48396;48.426;1.500;2023-05-10T14:06:51;17.90;97.30
62363;DHT22;48396;48.426;1.500;2023-05-10T14:09:18;18.00;96.90
62363;DHT22;48396;48.426;1.500;2023-05-10T14:11:43;18.10;97.20
62363;DHT22;48396;48.426;1.500;2023-05-10T14:14:10;18.10;97.30
62363;DHT22;48396;48.426;1.500;2023-05-10T14:16:35;18.00;96.70
62363;DHT22;48396;48.426;1.500;2023-05-10T14:19:01;18.10;96.20
62363;DHT22;48396;48.426;1.500;2023-05-10T14:21:27;18.00;95.40
62363;DHT22;48396;48.426;1.500;2023-05-10T14:23:54;17.90;95.50
62363;DHT22;48396;48.426;1.500;2023-05-10T14:26:20;18.00;95.70
62363;DHT22;48396;48.426;1.500;2023-05-10T14:28:46;17.90;95.50
62363;DHT22;48396;48.426;1.500;2023-05-10T14:31:12;18.00;95.30
62363;DHT22;48396;48.426;1.500;2023-05-10T14:33:38;18.00;95.00
62363;DHT22;48396;48.426;1.500;2023-05-10T14:36:03;17.90;94.50
62363;DHT22;48396;48.426;1.500;2023-05-10T14:38:29;18.00;94.40
62363;DHT22;48396;48.426;1.500;2023-05-10T14:40:55;18.00;94.10
62363;DHT22;48396;48.426;1.500;2023-05-10T14:43:20;18.10;94.00
62363;DHT22;48396;48.426;1.500;2023-05-10T14:45:46;18.20;94.00
62363;DHT22;48396;48.426;1.500;2023-05-10T14:48:12;18.30;93.40
62363;DHT22;48396;48.426;1.500;2023-05-10T14:50:40;18.30;93.30
62363;DHT22;48396;48.426;1.500;2023-05-10T14:53:06;18.40;93.40
62363;DHT22;48396;48.426;1.500;2023-05-10T14:55:32;18.50;93.90
62363;DHT22;48396;48.426;1.500;2023-05-10T14:57:58;18.50;94.30
62363;DHT22;48396;48.426;1.500;2023-05-10T15:00:23;18.50;94.60
62363;DHT22;48396;48.426;1.500;2023-05-10T15:02:49;18.60;94.40
62363;DHT22;48396;48.426;1.500;2023-05-10T15:05:15;18.60;93.70
62363;DHT22;48396;48.426;1.500;2023-05-10T15:07:40;18.70;93.60
62363;DHT22;48396;48.426;1.500;2023-05-10T15:10:09;18.70;93.90
62363;DHT22;48396;48.426;1.500;2023-05-10T15:12:35;18.70;93.80
62363;DHT22;48396;48.426;1.500;2023-05-10T15:15:00;18.70;93.60
62363;DHT22;48396;48.426;1.500;2023-05-10T15:17:26;18.60;93.30
62363;DHT22;48396;48.426;1.500;2023-05-10T15:19:52;18.60;93.60
62363;DHT22;48396;48.426;1.500;2023-05-10T15:22:17;18.70;93.80
62363;DHT22;48396;48.426;1.500;2023-05-10T15:24:43;18.50;94.00
62363;DHT22;48396;48.426;1.500;2023-05-10T15:27:08;18.30;94.80
62363;DHT22;48396;48.426;1.500;2023-05-10T15:29:34;18.10;94.90
62363;DHT22;48396;48.426;1.500;2023-05-10T15:32:01;17.90;95.30
62363;DHT22;48396;48.426;1.500;2023-05-10T15:34:27;17.80;95.00
62363;DHT22;48396;48.426;1.500;2023-05-10T15:36:53;17.60;94.90
62363;DHT22;48396;48.426;1.500;2023-05-10T15:39:18;17.50;95.30
62363;DHT22;48396;48.426;1.500;2023-05-10T15:41:44;17.50;95.30
62363;DHT22;48396;48.426;1.500;2023-05-10T15:44:10;17.50;95.30
62363;DHT22;48396;48.426;1.500;2023-05-10T15:46:36;17.50;95.30
62363;DHT22;48396;48.426;1.500;2023-05-10T15:49:03;17.20;95.20
62363;DHT22;48396;48.426;1.500;2023-05-10T15:51:28;17.00;95.70
62363;DHT22;48396;48.426;1.500;2023-05-10T15:53:54;17.20;95.80
62363;DHT22;48396;48.426;1.500;2023-05-10T15:56:20;17.30;95.70
62363;DHT22;48396;48.426;1.500;2023-05-10T15:58:45;17.50;95.70